sensor_id;sensor_type;location;lat;lon;timestamp;temperature;humidity
39095;DHT22;24840;47.508;19.376;2022-08-11T00:02:32;15.10;97.70
39095;DHT22;24840;47.508;19.376;2022-08-11T00:05:04;15.20;97.60
39095;DHT22;24840;47.508;19.376;2022-08-11T00:07:30;15.20;98.00
39095;DHT22;24840;47.508;19.376;2022-08-11T00:09:57;15.10;98.00
39095;DHT22;24840;47.508;19.376;2022-08-11T00:12:24;14.90;98.50
39095;DHT22;24840;47.508;19.376;2022-08-11T00:14:58;15.00;98.70
39095;DHT22;24840;47.508;19.376;2022-08-11T00:17:30;15.20;98.90
39095;DHT22;24840;47.508;19.376;2022-08-11T00:20:16;15.10;98.40
39095;DHT22;24840;47.508;19.376;2022-08-11T00:22:44;15.10;98.60
39095;DHT22;24840;47.508;19.376;2022-08-11T00:25:18;15.00;99.30
39095;DHT22;24840;47.508;19.376;2022-08-11T00:27:46;14.90;99.30
39095;DHT22;24840;47.508;19.376;2022-08-11T00:30:13;15.10;99.20
39095;DHT22;24840;47.508;19.376;2022-08-11T00:32:53;15.30;98.70
39095;DHT22;24840;47.508;19.376;2022-08-11T00:35:25;15.30;98.40
39095;DHT22;24840;47.508;19.376;2022-08-11T00:37:53;15.30;98.40
39095;DHT22;24840;47.508;19.376;2022-08-11T00:40:47;15.20;98.30
39095;DHT22;24840;47.508;19.376;2022-08-11T00:49:40;15.20;98.50
39095;DHT22;24840;47.508;19.376;2022-08-11T00:58:14;15.10;98.90
39095;DHT22;24840;47.508;19.376;2022-08-11T01:01:04;15.00;99.00
39095;DHT22;24840;47.508;19.376;2022-08-11T01:04:15;14.80;99.50
39095;DHT22;24840;47.508;19.376;2022-08-11T01:09:33;14.70;99.90
39095;DHT22;24840;47.508;19.376;2022-08-11T01:12:23;14.80;99.50
39095;DHT22;24840;47.508;19.376;2022-08-11T01:26:19;14.70;99.90
39095;DHT22;24840;47.508;19.376;2022-08-11T01:35:26;14.50;99.90
39095;DHT22;24840;47.508;19.376;2022-08-11T01:38:20;14.40;99.90
39095;DHT22;24840;47.508;19.376;2022-08-11T01:47:05;14.20;99.90
39095;DHT22;24840;47.508;19.376;2022-08-11T01:49:53;14.20;99.90
39095;DHT22;24840;47.508;19.376;2022-08-11T01:52:29;14.30;99.90
39095;DHT22;24840;47.508;19.376;2022-08-11T01:55:18;14.30;99.90
39095;DHT22;24840;47.508;19.376;2022-08-11T02:00:49;14.20;99.90
39095;DHT22;24840;47.508;19.376;2022-08-11T02:03:35;14.30;99.90
39095;DHT22;24840;47.508;19.376;2022-08-11T02:06:18;14.20;99.90
39095;DHT22;24840;47.508;19.376;2022-08-11T02:09:44;14.10;99.90
39095;DHT22;24840;47.508;19.376;2022-08-11T02:12:43;14.10;99.90
39095;DHT22;24840;47.508;19.376;2022-08-11T02:15:19;14.00;99.90
39095;DHT22;24840;47.508;19.376;2022-08-11T02:18:23;14.00;99.90
39095;DHT22;24840;47.508;19.376;2022-08-11T02:21:11;14.00;99.90
39095;DHT22;24840;47.508;19.376;2022-08-11T02:24:01;14.00;99.90
39095;DHT22;24840;47.508;19.376;2022-08-11T02:26:59;14.00;99.90
39095;DHT22;24840;47.508;19.376;2022-08-11T02:32:36;13.90;99.90
39095;DHT22;24840;47.508;19.376;2022-08-11T02:38:17;13.90;99.90
39095;DHT22;24840;47.508;19.376;2022-08-11T02:41:13;13.80;99.90
39095;DHT22;24840;47.508;19.376;2022-08-11T02:50:24;13.70;99.90
39095;DHT22;24840;47.508;19.376;2022-08-11T02:53:50;13.70;99.90
39095;DHT22;24840;47.508;19.376;2022-08-11T02:56:12;13.70;99.90
39095;DHT22;24840;47.508;19.376;2022-08-11T02:58:43;13.50;99.90
39095;DHT22;24840;47.508;19.376;2022-08-11T03:02:08;13.50;99.90
39095;DHT22;24840;47.508;19.376;2022-08-11T03:10:00;13.50;99.90
39095;DHT22;24840;47.508;19.376;2022-08-11T03:13:20;13.40;99.90
39095;DHT22;24840;47.508;19.376;2022-08-11T03:16:25;13.40;99.90
39095;DHT22;24840;47.508;19.376;2022-08-11T03:22:21;13.30;99.90
39095;DHT22;24840;47.508;19.376;2022-08-11T03:25:09;13.30;99.90
39095;DHT22;24840;47.508;19.376;2022-08-11T03:31:00;13.10;99.90
39095;DHT22;24840;47.508;19.376;2022-08-11T03:34:02;13.00;99.90
39095;DHT22;24840;47.508;19.376;2022-08-11T03:39:17;13.00;99.90
39095;DHT22;24840;47.508;19.376;2022-08-11T03:44:27;12.80;99.90
39095;DHT22;24840;47.508;19.376;2022-08-11T03:50:00;12.90;99.90
39095;DHT22;24840;47.508;19.376;2022-08-11T03:58:32;12.80;99.90
39095;DHT22;24840;47.508;19.376;2022-08-11T04:01:22;12.70;99.90
39095;DHT22;24840;47.508;19.376;2022-08-11T04:04:28;12.80;99.90
39095;DHT22;24840;47.508;19.376;2022-08-11T04:10:12;12.90;99.90
39095;DHT22;24840;47.508;19.376;2022-08-11T04:30:54;12.90;99.90
39095;DHT22;24840;47.508;19.376;2022-08-11T04:39:33;13.20;99.90
39095;DHT22;24840;47.508;19.376;2022-08-11T04:56:10;13.80;99.90
39095;DHT22;24840;47.508;19.376;2022-08-11T04:59:06;14.10;99.90
39095;DHT22;24840;47.508;19.376;2022-08-11T05:05:45;14.70;99.90
39095;DHT22;24840;47.508;19.376;2022-08-11T05:16:58;15.90;99.90
39095;DHT22;24840;47.508;19.376;2022-08-11T05:19:47;16.20;99.90
39095;DHT22;24840;47.508;19.376;2022-08-11T05:22:34;16.50;99.90
39095;DHT22;24840;47.508;19.376;2022-08-11T05:25:29;16.80;99.90
39095;DHT22;24840;47.508;19.376;2022-08-11T05:31:11;17.20;99.90
39095;DHT22;24840;47.508;19.376;2022-08-11T05:40:07;17.50;98.00
39095;DHT22;24840;47.508;19.376;2022-08-11T05:43:12;17.70;98.10
39095;DHT22;24840;47.508;19.376;2022-08-11T05:46:03;17.70;98.50
39095;DHT22;24840;47.508;19.376;2022-08-11T05:48:49;17.90;98.10
39095;DHT22;24840;47.508;19.376;2022-08-11T05:51:35;17.90;97.70
39095;DHT22;24840;47.508;19.376;2022-08-11T05:54:42;18.20;98.00
39095;DHT22;24840;47.508;19.376;2022-08-11T05:57:30;19.00;97.40
39095;DHT22;24840;47.508;19.376;2022-08-11T06:00:03;19.20;95.50
39095;DHT22;24840;47.508;19.376;2022-08-11T06:02:30;19.70;94.30
39095;DHT22;24840;47.508;19.376;2022-08-11T06:04:57;20.10;93.60
39095;DHT22;24840;47.508;19.376;2022-08-11T06:07:31;20.50;92.00
39095;DHT22;24840;47.508;19.376;2022-08-11T06:09:59;20.80;91.60
39095;DHT22;24840;47.508;19.376;2022-08-11T06:12:31;21.10;90.40
39095;DHT22;24840;47.508;19.376;2022-08-11T06:15:07;21.00;91.50
39095;DHT22;24840;47.508;19.376;2022-08-11T06:17:43;20.80;91.10
39095;DHT22;24840;47.508;19.376;2022-08-11T06:20:12;21.00;91.80
39095;DHT22;24840;47.508;19.376;2022-08-11T06:22:43;21.30;88.50
39095;DHT22;24840;47.508;19.376;2022-08-11T06:25:10;21.60;87.40
39095;DHT22;24840;47.508;19.376;2022-08-11T06:27:38;21.40;85.40
39095;DHT22;24840;47.508;19.376;2022-08-11T06:30:06;21.90;85.30
39095;DHT22;24840;47.508;19.376;2022-08-11T06:32:41;22.40;80.40
39095;DHT22;24840;47.508;19.376;2022-08-11T06:38:35;22.80;82.20
39095;DHT22;24840;47.508;19.376;2022-08-11T06:41:17;23.30;79.90
39095;DHT22;24840;47.508;19.376;2022-08-11T06:46:42;23.60;76.20
39095;DHT22;24840;47.508;19.376;2022-08-11T06:49:10;23.60;75.30
39095;DHT22;24840;47.508;19.376;2022-08-11T06:52:07;23.90;73.50
39095;DHT22;24840;47.508;19.376;2022-08-11T06:54:36;24.10;73.60
39095;DHT22;24840;47.508;19.376;2022-08-11T06:57:07;24.50;72.90
39095;DHT22;24840;47.508;19.376;2022-08-11T06:59:57;24.80;69.00
39095;DHT22;24840;47.508;19.376;2022-08-11T07:02:48;24.70;67.10
39095;DHT22;24840;47.508;19.376;2022-08-11T07:14:37;25.20;66.90
39095;DHT22;24840;47.508;19.376;2022-08-11T07:17:25;25.60;62.90
39095;DHT22;24840;47.508;19.376;2022-08-11T07:19:57;25.90;65.10
39095;DHT22;24840;47.508;19.376;2022-08-11T07:22:56;26.30;64.50
39095;DHT22;24840;47.508;19.376;2022-08-11T07:25:42;26.10;64.40
39095;DHT22;24840;47.508;19.376;2022-08-11T07:28:29;26.60;62.90
39095;DHT22;24840;47.508;19.376;2022-08-11T07:31:27;27.20;62.40
39095;DHT22;24840;47.508;19.376;2022-08-11T07:37:13;26.90;58.30
39095;DHT22;24840;47.508;19.376;2022-08-11T07:39:43;27.20;59.30
39095;DHT22;24840;47.508;19.376;2022-08-11T07:42:14;27.40;59.50
39095;DHT22;24840;47.508;19.376;2022-08-11T07:44:42;28.10;56.00
39095;DHT22;24840;47.508;19.376;2022-08-11T07:47:27;27.80;58.00
39095;DHT22;24840;47.508;19.376;2022-08-11T07:50:13;28.10;55.00
39095;DHT22;24840;47.508;19.376;2022-08-11T07:53:01;28.00;52.60
39095;DHT22;24840;47.508;19.376;2022-08-11T07:55:28;28.20;52.90
39095;DHT22;24840;47.508;19.376;2022-08-11T07:57:57;28.10;51.40
39095;DHT22;24840;47.508;19.376;2022-08-11T08:00:52;28.40;53.80
39095;DHT22;24840;47.508;19.376;2022-08-11T08:03:41;28.10;52.90
39095;DHT22;24840;47.508;19.376;2022-08-11T08:06:28;28.50;52.80
39095;DHT22;24840;47.508;19.376;2022-08-11T08:09:15;28.70;52.60
39095;DHT22;24840;47.508;19.376;2022-08-11T08:12:02;29.40;51.40
39095;DHT22;24840;47.508;19.376;2022-08-11T08:14:49;29.40;50.80
39095;DHT22;24840;47.508;19.376;2022-08-11T08:17:34;30.20;48.10
39095;DHT22;24840;47.508;19.376;2022-08-11T08:20:16;30.10;46.50
39095;DHT22;24840;47.508;19.376;2022-08-11T08:22:54;30.20;45.10
39095;DHT22;24840;47.508;19.376;2022-08-11T08:25:32;29.70;46.20
39095;DHT22;24840;47.508;19.376;2022-08-11T08:28:03;29.40;47.60
39095;DHT22;24840;47.508;19.376;2022-08-11T08:30:30;29.90;45.60
39095;DHT22;24840;47.508;19.376;2022-08-11T08:33:34;30.00;45.80
39095;DHT22;24840;47.508;19.376;2022-08-11T08:36:03;29.70;45.50
39095;DHT22;24840;47.508;19.376;2022-08-11T08:38:42;30.30;45.20
39095;DHT22;24840;47.508;19.376;2022-08-11T08:41:08;30.10;44.40
39095;DHT22;24840;47.508;19.376;2022-08-11T08:44:10;30.00;44.30
39095;DHT22;24840;47.508;19.376;2022-08-11T08:46:42;30.30;44.80
39095;DHT22;24840;47.508;19.376;2022-08-11T08:49:15;30.60;45.10
39095;DHT22;24840;47.508;19.376;2022-08-11T08:51:44;30.80;43.50
39095;DHT22;24840;47.508;19.376;2022-08-11T08:54:24;31.00;43.60
39095;DHT22;24840;47.508;19.376;2022-08-11T08:56:55;31.70;44.40
39095;DHT22;24840;47.508;19.376;2022-08-11T08:59:25;32.20;42.90
39095;DHT22;24840;47.508;19.376;2022-08-11T09:02:04;31.60;43.10
39095;DHT22;24840;47.508;19.376;2022-08-11T09:04:31;31.80;43.20
39095;DHT22;24840;47.508;19.376;2022-08-11T09:07:06;31.70;42.10
39095;DHT22;24840;47.508;19.376;2022-08-11T09:09:33;31.90;42.20
39095;DHT22;24840;47.508;19.376;2022-08-11T09:12:05;30.10;43.70
39095;DHT22;24840;47.508;19.376;2022-08-11T09:14:34;30.70;44.80
39095;DHT22;24840;47.508;19.376;2022-08-11T09:17:20;31.60;46.20
39095;DHT22;24840;47.508;19.376;2022-08-11T09:19:48;31.70;43.50
39095;DHT22;24840;47.508;19.376;2022-08-11T09:22:25;31.90;43.50
39095;DHT22;24840;47.508;19.376;2022-08-11T09:25:21;32.60;43.20
39095;DHT22;24840;47.508;19.376;2022-08-11T09:28:13;31.80;43.30
39095;DHT22;24840;47.508;19.376;2022-08-11T09:30:44;32.00;42.50
39095;DHT22;24840;47.508;19.376;2022-08-11T09:33:23;32.10;43.40
39095;DHT22;24840;47.508;19.376;2022-08-11T09:35:51;32.50;42.30
39095;DHT22;24840;47.508;19.376;2022-08-11T09:38:19;32.30;41.70
39095;DHT22;24840;47.508;19.376;2022-08-11T09:41:07;34.00;42.70
39095;DHT22;24840;47.508;19.376;2022-08-11T09:43:52;34.50;39.40
39095;DHT22;24840;47.508;19.376;2022-08-11T09:46:37;33.50;40.00
39095;DHT22;24840;47.508;19.376;2022-08-11T09:49:06;33.00;40.30
39095;DHT22;24840;47.508;19.376;2022-08-11T09:51:32;31.70;41.50
39095;DHT22;24840;47.508;19.376;2022-08-11T09:54:18;31.20;41.50
39095;DHT22;24840;47.508;19.376;2022-08-11T09:56:45;30.20;44.00
39095;DHT22;24840;47.508;19.376;2022-08-11T09:59:29;29.20;46.00
39095;DHT22;24840;47.508;19.376;2022-08-11T10:02:10;28.60;46.20
39095;DHT22;24840;47.508;19.376;2022-08-11T10:04:42;30.80;46.30
39095;DHT22;24840;47.508;19.376;2022-08-11T10:07:15;31.90;43.10
39095;DHT22;24840;47.508;19.376;2022-08-11T10:09:45;33.30;40.60
39095;DHT22;24840;47.508;19.376;2022-08-11T10:12:35;33.10;40.70
39095;DHT22;24840;47.508;19.376;2022-08-11T10:15:06;32.90;38.70
39095;DHT22;24840;47.508;19.376;2022-08-11T10:17:54;31.30;41.40
39095;DHT22;24840;47.508;19.376;2022-08-11T10:20:40;31.70;41.30
39095;DHT22;24840;47.508;19.376;2022-08-11T10:23:37;33.70;40.10
39095;DHT22;24840;47.508;19.376;2022-08-11T10:26:23;33.70;38.80
39095;DHT22;24840;47.508;19.376;2022-08-11T10:29:11;34.20;38.40
39095;DHT22;24840;47.508;19.376;2022-08-11T10:32:06;33.60;39.40
39095;DHT22;24840;47.508;19.376;2022-08-11T10:34:51;31.20;42.30
39095;DHT22;24840;47.508;19.376;2022-08-11T10:37:21;30.30;42.80
39095;DHT22;24840;47.508;19.376;2022-08-11T10:39:50;29.90;43.80
39095;DHT22;24840;47.508;19.376;2022-08-11T10:42:30;29.70;44.90
39095;DHT22;24840;47.508;19.376;2022-08-11T10:45:17;29.70;44.20
39095;DHT22;24840;47.508;19.376;2022-08-11T10:48:04;29.50;45.30
39095;DHT22;24840;47.508;19.376;2022-08-11T10:50:31;29.50;44.50
39095;DHT22;24840;47.508;19.376;2022-08-11T10:53:30;29.80;43.80
39095;DHT22;24840;47.508;19.376;2022-08-11T10:56:29;32.70;41.80
39095;DHT22;24840;47.508;19.376;2022-08-11T10:59:15;32.80;41.20
39095;DHT22;24840;47.508;19.376;2022-08-11T11:01:43;30.70;39.80
39095;DHT22;24840;47.508;19.376;2022-08-11T11:04:15;30.20;41.80
39095;DHT22;24840;47.508;19.376;2022-08-11T11:07:09;29.40;43.20
39095;DHT22;24840;47.508;19.376;2022-08-11T11:09:46;29.40;44.70
39095;DHT22;24840;47.508;19.376;2022-08-11T11:12:20;29.20;45.90
39095;DHT22;24840;47.508;19.376;2022-08-11T11:15:06;29.10;45.40
39095;DHT22;24840;47.508;19.376;2022-08-11T11:18:02;29.50;43.60
39095;DHT22;24840;47.508;19.376;2022-08-11T11:20:47;29.10;42.10
39095;DHT22;24840;47.508;19.376;2022-08-11T11:23:51;29.10;45.10
39095;DHT22;24840;47.508;19.376;2022-08-11T11:26:55;29.30;45.00
39095;DHT22;24840;47.508;19.376;2022-08-11T11:29:54;29.50;44.00
39095;DHT22;24840;47.508;19.376;2022-08-11T11:35:47;29.50;43.30
39095;DHT22;24840;47.508;19.376;2022-08-11T11:38:14;29.60;44.70
39095;DHT22;24840;47.508;19.376;2022-08-11T11:40:43;30.10;43.20
39095;DHT22;24840;47.508;19.376;2022-08-11T11:43:39;30.00;42.70
39095;DHT22;24840;47.508;19.376;2022-08-11T11:46:06;29.80;43.00
39095;DHT22;24840;47.508;19.376;2022-08-11T11:48:37;30.00;41.10
39095;DHT22;24840;47.508;19.376;2022-08-11T11:51:05;31.30;42.30
39095;DHT22;24840;47.508;19.376;2022-08-11T11:54:08;31.60;39.60
39095;DHT22;24840;47.508;19.376;2022-08-11T11:56:35;32.30;41.50
39095;DHT22;24840;47.508;19.376;2022-08-11T11:59:02;31.90;40.10
39095;DHT22;24840;47.508;19.376;2022-08-11T12:01:48;32.00;41.10
39095;DHT22;24840;47.508;19.376;2022-08-11T12:04:15;32.00;39.90
39095;DHT22;24840;47.508;19.376;2022-08-11T12:06:43;31.30;40.30
39095;DHT22;24840;47.508;19.376;2022-08-11T12:09:11;31.20;40.00
39095;DHT22;24840;47.508;19.376;2022-08-11T12:11:41;31.00;42.00
39095;DHT22;24840;47.508;19.376;2022-08-11T12:14:28;32.40;41.10
39095;DHT22;24840;47.508;19.376;2022-08-11T12:16:56;32.80;38.80
39095;DHT22;24840;47.508;19.376;2022-08-11T12:19:23;32.20;40.10
39095;DHT22;24840;47.508;19.376;2022-08-11T12:21:54;32.50;39.50
39095;DHT22;24840;47.508;19.376;2022-08-11T12:24:39;31.30;39.60
39095;DHT22;24840;47.508;19.376;2022-08-11T12:27:26;30.30;41.20
39095;DHT22;24840;47.508;19.376;2022-08-11T12:30:04;30.30;41.80
39095;DHT22;24840;47.508;19.376;2022-08-11T12:32:39;30.30;43.20
39095;DHT22;24840;47.508;19.376;2022-08-11T12:35:06;30.10;42.40
39095;DHT22;24840;47.508;19.376;2022-08-11T12:37:39;29.50;42.10
39095;DHT22;24840;47.508;19.376;2022-08-11T12:40:17;29.90;43.20
39095;DHT22;24840;47.508;19.376;2022-08-11T12:43:32;29.40;42.20
39095;DHT22;24840;47.508;19.376;2022-08-11T12:46:24;29.50;42.50
39095;DHT22;24840;47.508;19.376;2022-08-11T12:48:57;29.80;41.90
39095;DHT22;24840;47.508;19.376;2022-08-11T12:51:51;31.40;40.20
39095;DHT22;24840;47.508;19.376;2022-08-11T12:54:32;32.60;39.90
39095;DHT22;24840;47.508;19.376;2022-08-11T12:57:05;33.50;37.50
39095;DHT22;24840;47.508;19.376;2022-08-11T12:59:53;32.80;37.70
39095;DHT22;24840;47.508;19.376;2022-08-11T13:02:41;32.10;39.10
39095;DHT22;24840;47.508;19.376;2022-08-11T13:05:27;32.30;40.80
39095;DHT22;24840;47.508;19.376;2022-08-11T13:07:53;31.90;39.80
39095;DHT22;24840;47.508;19.376;2022-08-11T13:10:19;31.70;40.60
39095;DHT22;24840;47.508;19.376;2022-08-11T13:13:07;31.30;40.50
39095;DHT22;24840;47.508;19.376;2022-08-11T13:15:34;32.10;41.10
39095;DHT22;24840;47.508;19.376;2022-08-11T13:18:04;32.10;40.90
39095;DHT22;24840;47.508;19.376;2022-08-11T13:20:34;31.70;39.60
39095;DHT22;24840;47.508;19.376;2022-08-11T13:23:01;31.50;40.40
39095;DHT22;24840;47.508;19.376;2022-08-11T13:25:32;31.60;41.30
39095;DHT22;24840;47.508;19.376;2022-08-11T13:28:00;31.70;41.60
39095;DHT22;24840;47.508;19.376;2022-08-11T13:30:31;31.80;41.50
39095;DHT22;24840;47.508;19.376;2022-08-11T13:33:18;30.80;40.90
39095;DHT22;24840;47.508;19.376;2022-08-11T13:35:46;30.10;42.60
39095;DHT22;24840;47.508;19.376;2022-08-11T13:38:15;29.80;43.30
39095;DHT22;24840;47.508;19.376;2022-08-11T13:40:42;29.50;43.30
39095;DHT22;24840;47.508;19.376;2022-08-11T13:46:32;29.60;45.10
39095;DHT22;24840;47.508;19.376;2022-08-11T13:48:59;29.70;45.30
39095;DHT22;24840;47.508;19.376;2022-08-11T13:51:26;29.30;44.10
39095;DHT22;24840;47.508;19.376;2022-08-11T13:54:05;29.10;45.00
39095;DHT22;24840;47.508;19.376;2022-08-11T13:56:33;29.10;44.70
39095;DHT22;24840;47.508;19.376;2022-08-11T13:59:01;29.10;45.70
39095;DHT22;24840;47.508;19.376;2022-08-11T14:01:31;29.80;45.50
39095;DHT22;24840;47.508;19.376;2022-08-11T14:04:27;30.10;44.00
39095;DHT22;24840;47.508;19.376;2022-08-11T14:06:56;29.90;43.20
39095;DHT22;24840;47.508;19.376;2022-08-11T14:09:34;29.80;43.10
39095;DHT22;24840;47.508;19.376;2022-08-11T14:12:07;29.80;43.50
39095;DHT22;24840;47.508;19.376;2022-08-11T14:15:02;30.50;43.80
39095;DHT22;24840;47.508;19.376;2022-08-11T14:17:32;30.60;42.10
39095;DHT22;24840;47.508;19.376;2022-08-11T14:20:03;31.20;43.40
39095;DHT22;24840;47.508;19.376;2022-08-11T14:22:32;31.90;41.10
39095;DHT22;24840;47.508;19.376;2022-08-11T14:24:59;32.30;41.90
39095;DHT22;24840;47.508;19.376;2022-08-11T14:27:25;32.30;41.30
39095;DHT22;24840;47.508;19.376;2022-08-11T14:29:56;31.70;40.80
39095;DHT22;24840;47.508;19.376;2022-08-11T14:32:25;31.50;42.40
39095;DHT22;24840;47.508;19.376;2022-08-11T14:34:51;30.90;41.70
39095;DHT22;24840;47.508;19.376;2022-08-11T14:37:20;29.80;42.20
39095;DHT22;24840;47.508;19.376;2022-08-11T14:39:56;29.60;43.20
39095;DHT22;24840;47.508;19.376;2022-08-11T14:42:23;29.30;43.40
39095;DHT22;24840;47.508;19.376;2022-08-11T14:45:14;28.70;44.20
39095;DHT22;24840;47.508;19.376;2022-08-11T14:48:02;28.70;45.20
39095;DHT22;24840;47.508;19.376;2022-08-11T14:50:31;28.70;45.10
39095;DHT22;24840;47.508;19.376;2022-08-11T14:53:14;28.60;44.40
39095;DHT22;24840;47.508;19.376;2022-08-11T14:55:41;28.30;45.40
39095;DHT22;24840;47.508;19.376;2022-08-11T14:58:28;28.20;45.60
39095;DHT22;24840;47.508;19.376;2022-08-11T15:01:00;28.00;46.00
39095;DHT22;24840;47.508;19.376;2022-08-11T15:03:30;27.90;46.10
39095;DHT22;24840;47.508;19.376;2022-08-11T15:05:58;27.90;47.50
39095;DHT22;24840;47.508;19.376;2022-08-11T15:08:29;27.80;48.20
39095;DHT22;24840;47.508;19.376;2022-08-11T15:11:18;27.40;47.60
39095;DHT22;24840;47.508;19.376;2022-08-11T15:14:09;27.20;49.00
39095;DHT22;24840;47.508;19.376;2022-08-11T15:16:40;26.90;49.60
39095;DHT22;24840;47.508;19.376;2022-08-11T15:19:26;26.60;51.30
39095;DHT22;24840;47.508;19.376;2022-08-11T15:21:58;26.40;52.10
39095;DHT22;24840;47.508;19.376;2022-08-11T15:24:43;26.20;52.10
39095;DHT22;24840;47.508;19.376;2022-08-11T15:27:13;26.10;52.80
39095;DHT22;24840;47.508;19.376;2022-08-11T15:30:02;26.10;53.20
39095;DHT22;24840;47.508;19.376;2022-08-11T15:32:57;26.10;51.70
39095;DHT22;24840;47.508;19.376;2022-08-11T15:35:41;26.10;51.10
39095;DHT22;24840;47.508;19.376;2022-08-11T15:38:27;25.90;50.80
39095;DHT22;24840;47.508;19.376;2022-08-11T15:41:03;25.80;51.20
39095;DHT22;24840;47.508;19.376;2022-08-11T15:43:52;25.80;50.60
39095;DHT22;24840;47.508;19.376;2022-08-11T15:46:47;25.70;52.70
39095;DHT22;24840;47.508;19.376;2022-08-11T15:49:20;25.80;51.80
39095;DHT22;24840;47.508;19.376;2022-08-11T15:52:08;25.60;52.10
39095;DHT22;24840;47.508;19.376;2022-08-11T15:54:39;25.70;52.40
39095;DHT22;24840;47.508;19.376;2022-08-11T15:57:09;25.80;53.70
39095;DHT22;24840;47.508;19.376;2022-08-11T16:00:03;25.80;54.80
39095;DHT22;24840;47.508;19.376;2022-08-11T16:03:13;25.70;55.40
39095;DHT22;24840;47.508;19.376;2022-08-11T16:05:59;25.40;56.80
39095;DHT22;24840;47.508;19.376;2022-08-11T16:08:25;25.30;57.00
39095;DHT22;24840;47.508;19.376;2022-08-11T16:10:53;25.30;58.20
39095;DHT22;24840;47.508;19.376;2022-08-11T16:13:26;25.30;58.20
39095;DHT22;24840;47.508;19.376;2022-08-11T16:15:55;25.40;58.00
39095;DHT22;24840;47.508;19.376;2022-08-11T16:18:53;25.40;56.70
39095;DHT22;24840;47.508;19.376;2022-08-11T16:21:35;25.40;58.90
39095;DHT22;24840;47.508;19.376;2022-08-11T16:24:10;25.40;59.70
39095;DHT22;24840;47.508;19.376;2022-08-11T16:26:40;25.40;59.20
39095;DHT22;24840;47.508;19.376;2022-08-11T16:29:09;25.30;59.30
39095;DHT22;24840;47.508;19.376;2022-08-11T16:31:37;25.30;59.80
39095;DHT22;24840;47.508;19.376;2022-08-11T16:34:06;25.30;60.10
39095;DHT22;24840;47.508;19.376;2022-08-11T16:36:58;25.20;60.90
39095;DHT22;24840;47.508;19.376;2022-08-11T16:39:43;25.20;62.20
39095;DHT22;24840;47.508;19.376;2022-08-11T16:42:19;25.10;62.70
39095;DHT22;24840;47.508;19.376;2022-08-11T16:45:04;25.00;63.20
39095;DHT22;24840;47.508;19.376;2022-08-11T16:47:49;24.90;63.40
39095;DHT22;24840;47.508;19.376;2022-08-11T16:50:16;24.90;64.20
39095;DHT22;24840;47.508;19.376;2022-08-11T16:52:46;24.80;64.10
39095;DHT22;24840;47.508;19.376;2022-08-11T16:55:12;24.70;64.00
39095;DHT22;24840;47.508;19.376;2022-08-11T16:57:40;24.70;64.20
39095;DHT22;24840;47.508;19.376;2022-08-11T17:00:25;24.50;63.80
39095;DHT22;24840;47.508;19.376;2022-08-11T17:02:57;24.30;65.60
39095;DHT22;24840;47.508;19.376;2022-08-11T17:05:52;24.30;65.40
39095;DHT22;24840;47.508;19.376;2022-08-11T17:08:50;24.20;65.30
39095;DHT22;24840;47.508;19.376;2022-08-11T17:11:50;24.20;65.20
39095;DHT22;24840;47.508;19.376;2022-08-11T17:14:40;24.10;60.30
39095;DHT22;24840;47.508;19.376;2022-08-11T17:17:14;24.00;59.50
39095;DHT22;24840;47.508;19.376;2022-08-11T17:19:51;24.00;58.00
39095;DHT22;24840;47.508;19.376;2022-08-11T17:22:35;24.00;58.30
39095;DHT22;24840;47.508;19.376;2022-08-11T17:25:22;24.00;58.80
39095;DHT22;24840;47.508;19.376;2022-08-11T17:27:49;23.80;58.90
39095;DHT22;24840;47.508;19.376;2022-08-11T17:30:16;23.80;59.10
39095;DHT22;24840;47.508;19.376;2022-08-11T17:32:47;23.70;59.00
39095;DHT22;24840;47.508;19.376;2022-08-11T17:35:39;23.70;59.50
39095;DHT22;24840;47.508;19.376;2022-08-11T17:38:13;23.50;58.70
39095;DHT22;24840;47.508;19.376;2022-08-11T17:40:51;23.50;58.50
39095;DHT22;24840;47.508;19.376;2022-08-11T17:43:37;23.40;58.70
39095;DHT22;24840;47.508;19.376;2022-08-11T17:46:28;23.30;59.10
39095;DHT22;24840;47.508;19.376;2022-08-11T17:49:14;23.20;59.10
39095;DHT22;24840;47.508;19.376;2022-08-11T17:51:43;23.10;59.50
39095;DHT22;24840;47.508;19.376;2022-08-11T17:54:28;23.00;59.90
39095;DHT22;24840;47.508;19.376;2022-08-11T17:57:14;23.00;59.90
39095;DHT22;24840;47.508;19.376;2022-08-11T18:00:04;22.90;60.40
39095;DHT22;24840;47.508;19.376;2022-08-11T18:02:50;22.80;61.20
39095;DHT22;24840;47.508;19.376;2022-08-11T18:05:38;22.70;60.50
39095;DHT22;24840;47.508;19.376;2022-08-11T18:08:10;22.80;60.80
39095;DHT22;24840;47.508;19.376;2022-08-11T18:10:56;22.70;60.40
39095;DHT22;24840;47.508;19.376;2022-08-11T18:13:44;22.50;60.70
39095;DHT22;24840;47.508;19.376;2022-08-11T18:16:50;22.60;61.10
39095;DHT22;24840;47.508;19.376;2022-08-11T18:19:39;22.40;60.90
39095;DHT22;24840;47.508;19.376;2022-08-11T18:22:40;22.30;62.50
39095;DHT22;24840;47.508;19.376;2022-08-11T18:29:12;22.20;61.40
39095;DHT22;24840;47.508;19.376;2022-08-11T18:32:00;22.20;62.20
39095;DHT22;24840;47.508;19.376;2022-08-11T18:34:45;22.00;62.70
39095;DHT22;24840;47.508;19.376;2022-08-11T18:37:34;22.00;62.80
39095;DHT22;24840;47.508;19.376;2022-08-11T18:40:25;21.90;63.20
39095;DHT22;24840;47.508;19.376;2022-08-11T18:43:11;21.90;62.80
39095;DHT22;24840;47.508;19.376;2022-08-11T18:46:01;21.90;63.70
39095;DHT22;24840;47.508;19.376;2022-08-11T18:48:51;21.80;63.80
39095;DHT22;24840;47.508;19.376;2022-08-11T18:51:37;21.70;64.80
39095;DHT22;24840;47.508;19.376;2022-08-11T18:54:25;21.70;64.60
39095;DHT22;24840;47.508;19.376;2022-08-11T18:57:12;21.60;65.10
39095;DHT22;24840;47.508;19.376;2022-08-11T18:59:59;21.50;65.40
39095;DHT22;24840;47.508;19.376;2022-08-11T19:02:49;21.50;64.70
39095;DHT22;24840;47.508;19.376;2022-08-11T19:05:35;21.50;64.80
39095;DHT22;24840;47.508;19.376;2022-08-11T19:08:25;21.40;65.00
39095;DHT22;24840;47.508;19.376;2022-08-11T19:11:12;21.40;66.00
39095;DHT22;24840;47.508;19.376;2022-08-11T19:13:59;21.30;65.40
39095;DHT22;24840;47.508;19.376;2022-08-11T19:16:44;21.30;65.60
39095;DHT22;24840;47.508;19.376;2022-08-11T19:19:31;21.40;65.90
39095;DHT22;24840;47.508;19.376;2022-08-11T19:22:20;21.20;66.20
39095;DHT22;24840;47.508;19.376;2022-08-11T19:25:06;21.20;66.20
39095;DHT22;24840;47.508;19.376;2022-08-11T19:27:52;21.30;66.60
39095;DHT22;24840;47.508;19.376;2022-08-11T19:30:38;21.20;67.20